Carrboro, North Carolina
Current Conditions -  °F | °C
As of 3:34 PM on Monday 22 Dec 2014 (Local Time) from KIGX Reporting Station
Haze Haze  
Wind Chill:   Ceiling: 400
Heat Index:   Visibility: 2.5mi
Dew Point:   Wind: 5mph
Humidity: 96%   Direction: NA
Pressure: 30.06"   Gusts: NA
Location:  35.91°N, 79.08°W
Report Text: KIGX 222034Z AUTO VRB04KT 2 1/2SM BR OVC004 03/02 A3006 RMK AO2 T00280022
Loading
Personal Weather Stations






























Interactive Weather Map New forecast layout! Learn more

10-Day Weather Forecast

Advertisements
Track Severe Weather on mobile